Terminal Aerodrome Forecast
Issued by NWS

Home | Current Version | Previous Version | Text Only | Print | Product List | Glossary On
Versions: 1 2 3 4 5 6 7 8 9 10 11 12 13 14 15 16 17
247
FTUS44 KCRP 290528
TAFLRD
TAF
KLRD 290528Z 2906/3006 10015KT 6SM TSRA SCT025CB
     FM290700 30006KT P6SM SHRA SCT022 BKN035
     FM291200 VRB06KT P6SM OVC025
     FM292200 10007KT P6SM OVC035=

USA.gov is the U.S. government's official web portal to all federal, state and local government web resources and services.